Latest Weather Observations for Melbourne Airport

IDV60901

Issued at 6:41 pm EDT Tuesday 25 January 2022 (issued every 10 minutes, with the page automatically refreshed every 10 minutes)

About weather observations | Map of Melbourne area stations | Latest observations for Melbourne area | Other Formats
Station Details ID: 086282 Name: MELBOURNE AIRPORT Lat: -37.67 Lon: 144.83 Height: 113.4 m
Data from the previous 72 hours. | See also: Recent months at Melbourne Airport
Date/Time
EDT
Temp
°C
App
Temp
°C
Dew
Point
°C
Rel
Hum
%
Delta-T
°C
Wind Press
QNH
hPa
Press
MSL
hPa
Rain since
9am
mm
Dir  Spd
km/h
Gust
km/h
Spd
kts
Gust
kts
25/06:30pm 28.9 25.4 16.5 47 7.8 S 30 37 16 20 1007.4 1007.0 -
25/06:00pm 29.7 26.5 15.4 42 8.8 S 26 33 14 18 1007.1 1006.7 -
25/05:30pm 30.6 26.1 12.5 33 10.7 S 28 35 15 19 1007.1 1006.7 -
25/05:00pm 31.5 27.4 13.7 33 10.8 S 28 35 15 19 1007.0 1006.6 -
25/04:30pm 31.3 26.2 13.1 33 10.9 S 32 37 17 20 1007.1 1006.7 -
25/04:00pm 31.8 27.3 14.9 36 10.5 S 32 37 17 20 1007.0 1006.6 -
25/03:30pm 31.9 27.7 15.8 38 10.1 S 32 39 17 21 1007.1 1006.7 -
25/03:00pm 33.1 29.1 15.1 33 11.2 S 30 39 16 21 1007.1 1006.7 0.0
25/02:30pm 33.2 30.0 14.3 32 11.6 SSE 24 33 13 18 1007.1 1006.7 -
25/02:00pm 33.3 31.2 15.3 34 11.3 SSE 20 32 11 17 1007.3 1006.9 -
25/01:30pm 33.5 32.7 13.0 29 12.4 NNE 9 22 5 12 1007.5 1007.1 -
25/01:00pm 33.3 31.1 13.4 30 12.1 SE 17 22 9 12 1007.7 1007.3 -
25/12:30pm 32.8 32.0 13.9 31 11.5 SSE 11 17 6 9 1008.1 1007.8 -
25/12:00pm 31.7 30.3 13.5 33 11.0 NNE 13 22 7 12 1008.5 1008.2 -
25/11:30am 31.6 30.5 14.3 35 10.6 NE 13 22 7 12 1008.7 1008.4 -
25/11:00am 31.1 30.2 15.9 40 9.5 NE 15 22 8 12 1008.9 1008.6 -
25/10:30am 29.7 27.5 15.0 40 9.0 NNE 20 32 11 17 1009.1 1008.8 -
25/10:00am 28.7 25.6 14.5 42 8.6 NNE 24 28 13 15 1009.3 1008.9 -
25/09:30am 27.9 25.9 14.9 45 7.9 NNE 19 28 10 15 1009.4 1009.0 0.0
25/09:00am 25.5 25.9 16.4 57 5.6 NE 9 17 5 9 1009.5 1009.1 0.0
25/08:30am 22.2 24.7 17.3 74 3.0 CALM 0 4 0 2 1009.4 1009.0 0.0
25/08:00am 20.5 22.9 16.9 80 2.2 CALM 0 0 0 0 1009.4 1009.0 0.0
25/07:30am 19.5 19.6 15.4 77 2.4 N 9 11 5 6 1009.0 1008.7 0.0
25/07:00am 18.5 18.5 15.2 81 1.9 WNW 9 9 5 5 1008.8 1008.5 0.0
25/06:30am 17.6 17.6 14.3 81 1.9 WNW 7 9 4 5 1008.5 1008.2 0.0
25/06:00am 17.9 18.3 14.8 82 1.8 N 6 7 3 4 1008.3 1008.0 0.0
25/05:30am 18.3 18.7 14.8 80 2.0 NW 6 7 3 4 1008.0 1007.7 0.0
25/05:00am 18.7 18.6 15.0 79 2.2 W 9 9 5 5 1007.8 1007.4 0.0
25/04:30am 19.5 21.2 15.2 76 2.5 CALM 0 0 0 0 1007.7 1007.3 0.0
25/04:00am 19.2 20.5 14.2 73 2.9 CALM 0 0 0 0 1007.6 1007.2 0.0
25/03:30am 20.0 20.5 15.0 73 3.0 NW 6 7 3 4 1007.7 1007.3 0.0
25/03:00am 20.1 20.6 14.9 72 3.1 NW 6 11 3 6 1007.8 1007.4 0.0
25/02:30am 20.0 19.8 14.8 72 3.1 WNW 9 11 5 6 1007.9 1007.6 0.0
25/02:00am 20.1 19.5 13.6 66 3.8 WNW 9 11 5 6 1008.0 1007.7 0.0
25/01:30am 21.0 20.7 13.4 62 4.4 WNW 7 9 4 5 1008.1 1007.8 0.0
25/01:00am 21.0 20.5 13.7 63 4.2 WNW 9 11 5 6 1008.3 1008.0 0.0
25/12:30am 21.3 20.9 14.2 64 4.2 W 9 11 5 6 1008.2 1007.9 0.0
25/12:00am 21.9 20.8 14.3 62 4.5 W 13 15 7 8 1008.2 1007.9 0.0
 
Date/Time
EDT
Temp
°C
App
Temp
°C
Dew
Point
°C
Rel
Hum
%
Delta-T
°C
Wind Press
QNH
hPa
Press
MSL
hPa
Rain since
9am
mm
Dir  Spd
km/h
Gust
km/h
Spd
kts
Gust
kts
24/11:30pm 21.9 20.2 13.5 59 4.9 W 15 15 8 8 1008.1 1007.8 0.0
24/11:00pm 22.9 21.2 13.7 56 5.4 WNW 15 19 8 10 1008.2 1007.9 0.0
24/10:30pm 23.4 21.6 13.3 53 5.9 WNW 15 17 8 9 1008.0 1007.7 0.0
24/10:00pm 24.3 23.7 14.7 55 5.8 W 11 13 6 7 1007.7 1007.3 0.0
24/09:30pm 25.5 24.6 12.7 45 7.4 SW 9 9 5 5 1007.4 1007.0 0.0
24/09:00pm 26.9 25.1 11.0 37 9.1 SSW 11 17 6 9 1007.1 1006.7 0.0
24/08:30pm 28.2 25.5 11.7 36 9.6 SSW 17 24 9 13 1006.7 1006.3 0.0
24/08:00pm 29.6 27.3 12.9 35 9.9 S 17 22 9 12 1006.7 1006.3 0.0
24/07:30pm 30.2 26.1 13.9 37 9.9 S 28 33 15 18 1006.4 1006.0 0.0
24/07:00pm 30.3 26.6 14.0 37 9.9 S 26 35 14 19 1006.2 1005.8 0.0
24/06:30pm 30.1 25.2 13.8 37 9.8 S 32 37 17 20 1006.0 1005.6 0.0
24/06:00pm 31.5 26.3 12.8 32 11.2 S 32 41 17 22 1006.2 1005.8 0.0
24/05:30pm 32.5 27.2 13.2 31 11.6 SSE 33 39 18 21 1006.4 1006.0 0.0
24/05:00pm 32.5 26.9 12.2 29 12.1 S 33 39 18 21 1006.6 1006.2 0.0
24/04:30pm 33.2 28.0 12.8 29 12.3 SSE 32 39 17 21 1006.8 1006.4 0.0
24/04:00pm 34.4 30.3 13.8 29 12.7 SSE 28 33 15 18 1006.9 1006.5 0.0
24/03:30pm 34.7 31.4 14.0 28 12.7 SSE 24 35 13 19 1007.1 1006.7 0.0
24/03:00pm 34.2 33.6 14.7 31 12.1 SSE 11 28 6 15 1007.5 1007.1 0.0
24/02:30pm 33.9 33.8 13.4 29 12.5 W 6 11 3 6 1007.8 1007.4 0.0
24/02:00pm 32.1 30.4 12.3 29 11.8 ESE 13 20 7 11 1008.4 1008.1 0.0
24/01:30pm 32.2 30.7 11.9 29 12.0 SSE 11 28 6 15 1008.9 1008.6 0.0
24/01:00pm 33.0 31.9 13.1 30 12.0 WNW 11 15 6 8 1009.4 1009.0 0.0
24/12:30pm 32.0 30.3 12.3 30 11.7 N 13 22 7 12 1009.8 1009.4 0.0
24/12:00pm 31.8 29.5 13.1 32 11.3 N 17 26 9 14 1010.2 1009.8 0.0
24/11:30am 31.6 29.4 14.3 35 10.6 N 19 32 10 17 1010.5 1010.1 0.0
24/11:00am 30.7 27.8 13.9 36 10.2 NNW 22 30 12 16 1011.0 1010.6 0.0
24/10:30am 30.1 26.9 14.2 38 9.7 N 24 33 13 18 1011.3 1010.9 0.0
24/10:00am 28.8 24.8 14.2 40 8.8 N 28 37 15 20 1011.7 1011.3 0.0
24/09:30am 27.0 22.2 14.1 45 7.7 N 32 39 17 21 1011.9 1011.5 0.0
24/09:00am 25.2 21.1 13.7 49 6.8 N 28 37 15 20 1011.9 1011.5 0.0
24/08:30am 25.7 21.2 13.9 48 7.0 N 30 41 16 22 1011.9 1011.5 0.0
24/08:00am 24.0 21.1 14.1 54 5.9 N 22 32 12 17 1011.9 1011.5 0.0
24/07:30am 20.7 19.2 14.1 66 3.8 N 15 19 8 10 1011.8 1011.4 0.0
24/07:00am 18.7 18.6 15.0 79 2.2 N 9 13 5 7 1011.7 1011.3 0.0
24/06:30am 17.9 17.6 14.4 80 2.0 NNE 9 11 5 6 1011.4 1011.0 0.0
24/06:00am 18.6 18.1 14.9 79 2.2 N 11 13 6 7 1011.2 1010.8 0.0
24/05:30am 18.3 17.2 14.4 78 2.3 N 13 15 7 8 1011.1 1010.7 0.0
24/05:00am 18.2 17.9 14.3 78 2.3 N 9 13 5 7 1010.9 1010.5 0.0
24/04:30am 19.0 19.3 14.9 77 2.4 NW 7 9 4 5 1010.9 1010.5 0.0
24/04:00am 19.1 19.0 15.0 77 2.4 NW 9 11 5 6 1011.1 1010.7 0.0
24/03:30am 19.2 18.8 15.1 77 2.4 WNW 11 13 6 7 1011.2 1010.8 0.0
24/03:00am 19.4 19.2 14.6 74 2.8 WNW 9 11 5 6 1011.2 1010.8 0.0
24/02:30am 20.3 20.3 15.1 72 3.1 NW 9 11 5 6 1011.5 1011.1 0.0
24/02:00am 20.2 19.4 15.2 73 3.0 W 13 15 7 8 1011.4 1011.0 0.0
24/01:30am 20.9 20.1 15.0 69 3.5 W 13 15 7 8 1011.4 1011.0 0.0
24/01:00am 21.2 20.4 15.1 68 3.6 W 13 15 7 8 1011.6 1011.2 0.0
24/12:30am 21.6 20.5 15.2 67 3.8 W 15 19 8 10 1011.8 1011.4 0.0
24/12:00am 22.1 21.3 15.2 65 4.1 W 13 15 7 8 1011.8 1011.4 0.0
 
Date/Time
EDT
Temp
°C
App
Temp
°C
Dew
Point
°C
Rel
Hum
%
Delta-T
°C
Wind Press
QNH
hPa
Press
MSL
hPa
Rain since
9am
mm
Dir  Spd
km/h
Gust
km/h
Spd
kts
Gust
kts
23/11:30pm 22.6 21.5 15.2 63 4.4 W 15 19 8 10 1011.9 1011.5 0.0
23/11:00pm 23.2 21.7 15.3 61 4.8 WNW 17 19 9 10 1012.0 1011.6 0.0
23/10:30pm 23.5 22.8 16.3 64 4.4 WNW 15 17 8 9 1011.9 1011.5 0.0
23/10:00pm 24.4 23.5 15.9 59 5.2 WNW 15 19 8 10 1011.9 1011.5 0.0
23/09:30pm 24.7 24.8 15.6 57 5.5 WSW 9 9 5 5 1011.6 1011.2 0.0
23/09:00pm 25.4 25.5 14.5 51 6.5 SW 7 7 4 4 1011.3 1010.9 0.0
23/08:30pm 27.0 25.9 14.4 46 7.6 S 13 17 7 9 1011.3 1010.9 0.0
23/08:00pm 27.8 26.3 14.1 43 8.2 S 15 20 8 11 1011.1 1010.7 0.0
23/07:30pm 29.0 25.1 13.2 37 9.4 SSE 26 32 14 17 1011.1 1010.7 0.0
23/07:00pm 29.9 24.9 12.3 33 10.4 SSE 30 35 16 19 1010.9 1010.5 0.0
23/06:30pm 31.0 25.8 12.8 32 10.9 SSE 32 35 17 19 1011.1 1010.7 0.0
23/06:00pm 31.6 26.3 12.4 31 11.4 SSE 32 39 17 21 1011.2 1010.8 0.0
23/05:30pm 31.5 26.0 11.8 30 11.6 SSE 32 37 17 20 1011.4 1011.0 0.0
23/05:00pm 32.9 28.6 12.0 28 12.4 SSE 26 33 14 18 1011.6 1011.2 0.0
23/04:30pm 33.0 28.5 11.5 27 12.7 SSE 26 32 14 17 1011.8 1011.4 0.0
23/04:00pm 33.1 30.1 12.1 27 12.5 SE 19 30 10 16 1012.0 1011.6 0.0
23/03:30pm 31.7 28.7 12.0 30 11.6 S 19 28 10 15 1012.4 1012.0 0.0
23/03:00pm 32.3 31.0 12.5 30 11.8 E 11 19 6 10 1012.9 1012.5 0.0
23/02:30pm 33.2 31.6 12.8 29 12.3 ESE 13 28 7 15 1013.2 1012.8 0.0
23/02:00pm 32.3 31.2 12.0 29 12.0 ESE 9 15 5 8 1013.8 1013.4 0.0
23/01:30pm 32.3 29.5 11.5 28 12.2 E 17 28 9 15 1014.2 1013.8 0.0
23/01:00pm 31.8 29.6 12.1 30 11.7 NE 15 26 8 14 1014.6 1014.2 0.0
23/12:30pm 31.4 29.4 12.7 32 11.2 NE 15 28 8 15 1014.9 1014.5 0.0
23/12:00pm 29.8 28.3 11.8 33 10.5 NNE 11 26 6 14 1015.3 1015.0 0.0
23/11:30am 29.7 26.9 12.6 35 10.1 NNE 19 30 10 16 1015.7 1015.4 0.0
23/11:16am 28.1 27.0 17.3 52 6.8 NNE 19 28 10 15 1015.9 1015.6 0.0
23/11:12am 23.1 22.9 19.7 81 2.2 NNE 20 33 11 18 1015.9 1015.6 0.0
23/11:00am 29.3 26.2 12.3 35 10.0 NNE 20 28 11 15 1016.1 1015.8 0.0
23/10:30am 27.9 25.0 12.3 38 9.1 NNE 19 30 10 16 1016.6 1016.3 0.0
23/10:00am 27.2 24.3 12.8 41 8.4 NNE 20 32 11 17 1016.8 1016.5 0.0
23/09:30am 26.4 21.7 12.1 41 8.3 NNE 28 35 15 19 1016.8 1016.5 0.0
23/09:00am 25.3 20.3 12.2 44 7.5 N 30 41 16 22 1016.9 1016.6 0.0
23/08:30am 24.5 20.7 12.5 47 6.9 NNE 24 32 13 17 1016.9 1016.6 0.0
23/08:00am 21.5 19.6 12.9 58 4.9 NNE 15 30 8 16 1017.1 1016.8 0.0
23/07:30am 19.9 18.5 13.4 66 3.7 N 13 15 7 8 1017.0 1016.7 0.0
23/07:00am 17.3 16.3 13.4 78 2.2 NNE 11 15 6 8 1017.1 1016.8 0.0
23/06:30am 16.0 15.3 13.1 83 1.6 N 9 9 5 5 1016.9 1016.6 0.0
23/06:00am 15.9 15.5 13.0 83 1.6 NNW 7 9 4 5 1016.8 1016.5 0.0
23/05:30am 16.2 15.8 13.1 82 1.7 N 7 7 4 4 1016.5 1016.2 0.0
23/05:00am 16.7 16.4 13.2 80 2.0 N 7 7 4 4 1016.4 1016.1 0.0
23/04:30am 16.4 15.7 13.1 81 1.9 N 9 11 5 6 1016.2 1015.9 0.0
23/04:00am 17.9 17.3 13.6 76 2.4 NNW 9 9 5 5 1016.2 1015.9 0.0
23/03:30am 17.4 16.9 13.7 79 2.1 N 9 11 5 6 1016.3 1016.0 0.0
23/03:00am 18.5 18.4 14.0 75 2.6 NW 7 9 4 5 1016.5 1016.2 0.0
23/02:30am 18.8 18.5 14.3 75 2.6 N 9 11 5 6 1016.6 1016.3 0.0
23/02:00am 19.8 19.8 14.2 70 3.3 NW 7 7 4 4 1016.8 1016.5 0.0
23/01:30am 19.8 19.1 14.4 71 3.2 NW 11 15 6 8 1017.0 1016.7 0.0
23/01:00am 20.4 19.0 14.5 69 3.5 WNW 15 19 8 10 1017.2 1016.9 0.0
23/12:30am 20.5 19.5 14.6 69 3.5 WNW 13 15 7 8 1017.3 1017.0 0.0
23/12:00am 20.8 19.5 14.7 68 3.6 WNW 15 17 8 9 1017.2 1016.9 0.0
 
Date/Time
EDT
Temp
°C
App
Temp
°C
Dew
Point
°C
Rel
Hum
%
Delta-T
°C
Wind Press
QNH
hPa
Press
MSL
hPa
Rain since
9am
mm
Dir  Spd
km/h
Gust
km/h
Spd
kts
Gust
kts
22/11:30pm 21.7 20.3 14.6 64 4.2 WNW 15 17 8 9 1017.4 1017.1 0.0
22/11:00pm 22.5 21.1 14.6 61 4.7 WNW 15 17 8 9 1017.4 1017.1 0.0
22/10:30pm 23.1 21.8 13.8 55 5.5 NW 13 17 7 9 1017.4 1017.1 0.0
22/10:00pm 26.2 23.4 11.2 39 8.5 SE 17 22 9 12 1017.2 1016.9 0.0
22/09:30pm 27.2 24.8 11.3 37 9.1 SSE 15 26 8 14 1016.9 1016.6 0.0
22/09:00pm 26.3 25.0 14.7 48 7.0 S 15 24 8 13 1016.7 1016.4 0.0
22/08:30pm 27.0 24.6 15.4 49 7.1 S 22 28 12 15 1016.5 1016.2 0.0
22/08:00pm 28.2 24.5 15.1 44 8.0 S 28 35 15 19 1016.4 1016.1 0.0
22/07:30pm 29.1 24.6 14.9 42 8.7 S 32 41 17 22 1016.3 1016.0 0.0
22/07:00pm 29.8 24.9 14.4 39 9.4 S 33 41 18 22 1016.2 1015.9 0.0

Latest Capital City Observations: Canberra | Sydney | Melbourne | Brisbane | Adelaide | Perth | Hobart | Darwin

Other formats

Comma delimited format used in spreadsheet applications
http://www.bom.gov.au/fwo/IDV60901/IDV60901.94866.axf

JavaScript Object Notation format (JSON) in row-major order
http://www.bom.gov.au/fwo/IDV60901/IDV60901.94866.json

Data quality

Most of these data are generated automatically and are frequently updated. Quality checks on data are not normally performed. It is possible for incorrect values to appear. Refer to information at About Latest Weather Observations and please check the disclaimer before using these data.